Accueil
METAR-TAF:

METAR-TAF

Aéroports :

Farnborough, Angleterre

latitude: 51-17N, longitude: 000-46W, altitude: 65 m

Observation

Le bulletin a été fait il y a 23 minutes, à 07:20 UTC
Vent 5 kt de ouest/sud-ouest
Température 9°C
Humidité 87%
Pression 1032 hPa
Visibilité 10 km ou plus

METAR: EGLF 200720Z AUTO 25005KT 9999 OVC008/// 09/07 Q1032

Heure: 07:43 (07:43 UTC)

Prévision

Le bulletin a été fait il y a 2 heures et 44 minutes, à 04:59 UTC
Prévision valable du 20 à 06 UTC au 20 à 15 UTC
Vent 3 kt de ouest/sud-ouest
Visibilité 10 km ou plus
Nuages fragmentés à une hauteur de 1200 ft
Temporairement
du 20 à 06 UTC au 20 à 10 UTC
Visibilité: 8000 m
Nuages fragmentés à une hauteur de 600 ft
Evoluant progressivement
du 20 à 10 UTC au 20 à 13 UTC
Nuages fragmentés à une hauteur de 1600 ft

TAF: EGLF 200459Z 2006/2015 24003KT 9999 BKN012 TEMPO 2006/2010 8000 BKN006 BECMG 2010/2013 BKN016

Observations et prévisions météorologiques de plus de 4000 aéroports (messages METAR et TAF).

Les stations disponibles sont représentées par des disques jaunes et rouges sur la carte.

Passer la souris dessus pour voir le nom de la station.

Cliquer dessus pour voir les observations et prévisions météorologiques.

Pour changer de carte: cliquez sur les boutons verts avec une croix noire pour zoomer, sur le bouton vert avec un tiret pour effectuer un zoom arrière, ou sur les flèches vertes pour les cartes adjacentes.


METAR-TAF: